Portada
METAR-TAF:

METAR-TAF

Aeroports :

Seül Inchon, Corea del Sud

latitud: 37-28N, longitud: 126-27E, altitud: 7 m

Observació

L'informe es va fer fa 21 minuts, a les 19:30 UTC
Vent 3 kt del Nord, variant entre Nord i Sud-Est
Temperatura 13°C
Humitat 54%
Pressió 1018 hPa
Visibilitat 10 km o més
sense núvols per sota de 1500 mi sense presència de cumulonimbus.

METAR: RKSI 151930Z 01003KT 360V140 CAVOK 13/04 Q1018 NOSIG

Hora: 04:51 (19:51 UTC)

Pronòstic

L'informe es va fer fa 2 hores i 51 minuts, a les 17:00 UTC
Pronòstic vàlid del 15 a les 18 UTC al 16 a les 24 UTC
Vent 10 kt del Nord/Nord-Oest
Visibilitat 10 km o més
Escasses núvols a una alçada de 3000 ft
Cel ennuvolat a una alçada de 18000 ft

TAF: RKSI 151700Z 1518/1624 33010KT 9999 FEW030 BKN180 TN12/1521Z TX18/1606Z TN09/1621Z

Observacions i pronòstics meteorològics de més de 4000 aeroports (METAR i TAF).

Les estacions disponibles són els punts grocs i vermells al mapa.

Posi el ratolí al punt desitjat per veure el nom de l'estació.

Feu clic per veure les observacions i els pronòstics meteorològics.

Per canviar el mapa: feu clic els botons verds amb una creu de color negre per apropar; al botó verd amb un guió per allunyar la imatge; o en les fletxes verdes per a mapes adjacents.


METAR-TAF: